createdAt,value
2022-11-24T00:00:00.750Z,17.92
2022-11-24T00:02:31.242Z,17.83
2022-11-24T00:05:01.103Z,17.82
2022-11-24T00:07:30.921Z,17.82
2022-11-24T00:10:00.971Z,17.73
2022-11-24T00:12:30.681Z,17.71
2022-11-24T00:15:00.427Z,17.72
2022-11-24T00:17:30.569Z,17.82
2022-11-24T00:20:00.299Z,17.90
2022-11-24T00:22:30.194Z,17.86
2022-11-24T00:24:59.858Z,17.82
2022-11-24T00:27:29.549Z,17.82
2022-11-24T00:30:00.651Z,17.82
2022-11-24T00:32:31.960Z,17.79
2022-11-24T00:35:02.015Z,17.72
2022-11-24T00:37:32.175Z,17.69
2022-11-24T00:40:01.848Z,17.62
2022-11-24T00:42:31.537Z,17.55
2022-11-24T00:45:12.998Z,17.52
2022-11-24T00:47:43.954Z,17.46
2022-11-24T00:50:13.685Z,17.44
2022-11-24T00:52:43.365Z,17.35
2022-11-24T00:55:13.164Z,17.30
2022-11-24T00:57:42.904Z,17.23
2022-11-24T01:00:12.905Z,17.15
2022-11-24T01:02:42.654Z,17.13
2022-11-24T01:05:12.936Z,17.14
2022-11-24T01:07:42.659Z,17.10
2022-11-24T01:10:13.557Z,17.11
2022-11-24T01:12:44.167Z,17.15
2022-11-24T01:15:14.078Z,17.15
2022-11-24T01:17:43.774Z,17.11
2022-11-24T01:20:14.737Z,17.02
2022-11-24T01:22:44.465Z,16.97
2022-11-24T01:25:14.223Z,16.95
2022-11-24T01:27:43.937Z,17.02
2022-11-24T01:30:13.780Z,17.11
2022-11-24T01:32:43.464Z,17.28
2022-11-24T01:35:14.124Z,17.25
2022-11-24T01:37:44.274Z,17.13
2022-11-24T01:40:14.425Z,17.07
2022-11-24T01:42:54.879Z,17.00
2022-11-24T01:45:37.745Z,16.99
2022-11-24T01:48:12.178Z,16.91
2022-11-24T01:50:43.214Z,16.91
2022-11-24T01:53:15.539Z,16.87
2022-11-24T01:55:45.691Z,16.88
2022-11-24T01:58:19.796Z,16.87
2022-11-24T02:00:49.975Z,16.84
2022-11-24T02:03:27.342Z,16.80
2022-11-24T02:06:21.699Z,16.72
2022-11-24T02:09:14.684Z,16.67
2022-11-24T02:11:46.522Z,16.70
2022-11-24T02:14:19.515Z,16.69
2022-11-24T02:16:54.327Z,16.60
2022-11-24T02:19:42.011Z,16.56
2022-11-24T02:22:31.166Z,16.56
2022-11-24T02:25:10.333Z,16.57
2022-11-24T02:27:40.481Z,16.63
2022-11-24T02:30:10.949Z,16.65
2022-11-24T02:32:44.106Z,16.59
2022-11-24T02:35:15.913Z,16.57
2022-11-24T02:37:46.016Z,16.53
2022-11-24T02:40:26.109Z,16.53
2022-11-24T02:43:01.400Z,16.46
2022-11-24T02:45:32.954Z,16.44
2022-11-24T02:48:03.675Z,16.44
2022-11-24T02:50:33.524Z,16.42
2022-11-24T02:53:03.431Z,16.42
2022-11-24T02:55:33.156Z,16.41
2022-11-24T02:58:02.867Z,16.35
2022-11-24T03:00:32.587Z,16.29
2022-11-24T03:03:02.516Z,16.29
2022-11-24T03:05:32.485Z,16.22
2022-11-24T03:08:02.259Z,16.25
2022-11-24T03:10:32.120Z,16.21
2022-11-24T03:13:01.807Z,16.21
2022-11-24T03:15:31.651Z,16.18
2022-11-24T03:18:01.458Z,16.16
2022-11-24T03:20:32.021Z,16.18
2022-11-24T03:23:02.175Z,16.16
2022-11-24T03:25:31.964Z,16.15
2022-11-24T03:28:01.847Z,16.14
2022-11-24T03:30:31.820Z,16.12
2022-11-24T03:33:01.511Z,16.09
2022-11-24T03:35:31.293Z,16.11
2022-11-24T03:38:00.972Z,16.05
2022-11-24T03:40:30.657Z,16.05
2022-11-24T03:43:00.641Z,16.05
2022-11-24T03:45:45.423Z,16.05
2022-11-24T03:48:18.024Z,16.02
2022-11-24T03:50:59.585Z,15.95
2022-11-24T03:53:32.055Z,15.90
2022-11-24T03:56:03.198Z,15.88
2022-11-24T03:58:33.214Z,15.85
2022-11-24T04:01:04.065Z,15.83
2022-11-24T04:03:34.248Z,15.85
2022-11-24T04:06:03.917Z,15.85
2022-11-24T04:08:33.925Z,15.85
2022-11-24T04:11:03.598Z,15.85
2022-11-24T04:13:33.649Z,15.81
2022-11-24T04:16:07.408Z,15.81
2022-11-24T04:18:37.634Z,15.83
2022-11-24T04:21:07.427Z,15.84
2022-11-24T04:23:37.106Z,15.80
2022-11-24T04:26:06.963Z,15.78
2022-11-24T04:28:36.633Z,15.76
2022-11-24T04:31:07.590Z,15.74
2022-11-24T04:33:37.698Z,15.76
2022-11-24T04:36:08.011Z,15.73
2022-11-24T04:39:25.369Z,15.70
2022-11-24T04:41:27.656Z,15.67
2022-11-24T04:43:57.320Z,15.66
2022-11-24T04:46:27.970Z,15.67
2022-11-24T04:48:57.974Z,15.63
2022-11-24T04:51:27.761Z,15.61
2022-11-24T04:53:57.419Z,15.61
2022-11-24T04:56:27.094Z,15.58
2022-11-24T04:58:56.781Z,15.61
2022-11-24T05:01:26.771Z,15.60
2022-11-24T05:03:57.227Z,15.61
2022-11-24T05:06:27.584Z,15.53
2022-11-24T05:08:57.362Z,15.53
2022-11-24T05:11:27.372Z,15.51
2022-11-24T05:13:57.036Z,15.49
2022-11-24T05:16:27.030Z,15.44
2022-11-24T05:18:56.802Z,15.44
2022-11-24T05:21:26.727Z,15.44
2022-11-24T05:23:57.345Z,15.44
2022-11-24T05:26:27.721Z,15.43
2022-11-24T05:28:57.529Z,15.40
2022-11-24T05:31:27.271Z,15.40
2022-11-24T05:33:56.974Z,15.42
2022-11-24T05:36:45.391Z,15.36
2022-11-24T05:39:15.470Z,15.32
2022-11-24T05:41:45.155Z,15.32
2022-11-24T05:44:14.867Z,15.29
2022-11-24T05:46:44.578Z,15.27
2022-11-24T05:49:14.660Z,15.29
2022-11-24T05:51:44.361Z,15.26
2022-11-24T05:54:14.033Z,15.23
2022-11-24T05:56:43.718Z,15.19
2022-11-24T05:59:13.524Z,15.19
2022-11-24T06:01:43.597Z,15.19
2022-11-24T06:04:13.394Z,15.13
2022-11-24T06:06:43.241Z,15.09
2022-11-24T06:09:12.904Z,15.09
2022-11-24T06:11:42.603Z,15.02
2022-11-24T06:14:12.336Z,15.02
2022-11-24T06:16:42.326Z,15.05
2022-11-24T06:19:12.963Z,15.03
2022-11-24T06:21:42.855Z,15.05
2022-11-24T06:24:12.694Z,15.10
2022-11-24T06:26:42.883Z,15.10
2022-11-24T06:29:12.649Z,15.08
2022-11-24T06:31:42.400Z,15.03
2022-11-24T06:34:13.841Z,15.03
2022-11-24T06:36:43.917Z,15.06
2022-11-24T06:39:13.624Z,15.08
2022-11-24T06:41:43.660Z,15.02
2022-11-24T06:44:13.368Z,15.00
2022-11-24T06:46:43.688Z,15.02
2022-11-24T06:49:13.352Z,15.02
2022-11-24T06:51:43.773Z,15.02
2022-11-24T06:54:17.084Z,14.98
2022-11-24T06:56:47.369Z,15.00
2022-11-24T06:59:21.791Z,14.96
2022-11-24T07:01:52.047Z,14.91
2022-11-24T07:04:21.828Z,14.91
2022-11-24T07:06:51.527Z,14.87
2022-11-24T07:09:21.233Z,14.91
2022-11-24T07:11:51.137Z,14.88
2022-11-24T07:14:21.732Z,14.84
2022-11-24T07:16:51.518Z,14.84
2022-11-24T07:19:24.878Z,14.87
2022-11-24T07:21:55.313Z,14.88
2022-11-24T07:24:25.917Z,14.87
2022-11-24T07:26:56.188Z,14.87
2022-11-24T07:29:25.885Z,14.87
2022-11-24T07:31:56.863Z,14.85
2022-11-24T07:34:29.652Z,14.85
2022-11-24T07:36:58.886Z,14.79
2022-11-24T07:39:28.469Z,14.81
2022-11-24T07:41:59.637Z,14.78
2022-11-24T07:44:29.482Z,14.72
2022-11-24T07:46:59.394Z,14.71
2022-11-24T07:49:28.840Z,14.78
2022-11-24T07:51:58.474Z,14.74
2022-11-24T07:54:28.474Z,14.74
2022-11-24T07:56:58.424Z,14.77
2022-11-24T07:59:28.089Z,14.74
2022-11-24T08:01:57.791Z,14.72
2022-11-24T08:04:27.508Z,14.77
2022-11-24T08:06:57.407Z,14.72
2022-11-24T08:09:27.073Z,14.72
2022-11-24T08:11:57.573Z,14.75
2022-11-24T08:14:27.248Z,14.75
2022-11-24T08:16:56.558Z,14.72
2022-11-24T08:19:26.519Z,14.63
2022-11-24T08:21:57.371Z,14.58
2022-11-24T08:24:29.684Z,14.61
2022-11-24T08:26:59.747Z,14.57
2022-11-24T08:29:32.922Z,14.61
2022-11-24T08:32:02.854Z,14.58
2022-11-24T08:34:32.875Z,14.58
2022-11-24T08:37:05.473Z,14.63
2022-11-24T08:39:35.695Z,14.65
2022-11-24T08:42:05.507Z,14.67
2022-11-24T08:44:35.856Z,14.69
2022-11-24T08:47:06.283Z,14.69
2022-11-24T08:49:36.016Z,14.77
2022-11-24T08:52:06.083Z,14.85
2022-11-24T08:54:36.033Z,14.82
2022-11-24T08:57:05.993Z,14.85
2022-11-24T08:59:35.740Z,14.93
2022-11-24T09:02:05.504Z,14.99
2022-11-24T09:04:35.398Z,15.08
2022-11-24T09:07:05.429Z,15.19
2022-11-24T09:09:35.095Z,15.20
2022-11-24T09:12:06.578Z,15.32
2022-11-24T09:14:39.163Z,15.42
2022-11-24T09:17:08.885Z,15.50
2022-11-24T09:19:38.801Z,15.66
2022-11-24T09:22:08.842Z,18.27
2022-11-24T09:24:41.159Z,17.75
2022-11-24T09:27:11.817Z,17.65
2022-11-24T09:29:41.542Z,17.21
2022-11-24T09:32:11.544Z,17.42
2022-11-24T09:34:41.220Z,17.28
2022-11-24T09:37:10.901Z,17.51
2022-11-24T09:39:40.599Z,18.03
2022-11-24T09:42:16.095Z,21.49
2022-11-24T09:44:51.756Z,21.82
2022-11-24T09:47:39.963Z,21.11
2022-11-24T09:50:21.221Z,18.92
2022-11-24T09:53:04.772Z,17.99
2022-11-24T09:55:57.607Z,17.62
2022-11-24T09:58:39.021Z,17.52
2022-11-24T10:01:21.745Z,17.58
2022-11-24T10:03:54.034Z,17.63
2022-11-24T10:06:25.583Z,17.73
2022-11-24T10:09:11.297Z,17.86
2022-11-24T10:11:44.522Z,18.37
2022-11-24T10:14:38.237Z,18.81
2022-11-24T10:17:13.636Z,22.71
2022-11-24T10:20:29.568Z,24.48
2022-11-24T10:23:20.727Z,23.18
2022-11-24T10:26:01.476Z,21.39
2022-11-24T10:28:46.168Z,20.84
2022-11-24T10:31:21.929Z,20.14
2022-11-24T10:33:52.441Z,20.19
2022-11-24T10:36:34.537Z,20.87
2022-11-24T10:39:13.870Z,20.60
2022-11-24T10:41:48.441Z,20.70
2022-11-24T10:44:18.412Z,20.86
2022-11-24T10:46:48.456Z,21.79
2022-11-24T10:49:27.256Z,21.97
2022-11-24T10:52:08.916Z,21.85
2022-11-24T10:55:01.363Z,21.76
2022-11-24T10:57:37.966Z,22.64
2022-11-24T11:00:20.401Z,23.56
2022-11-24T11:02:51.993Z,23.89
2022-11-24T11:05:34.607Z,23.82
2022-11-24T11:08:16.562Z,23.74
2022-11-24T11:10:47.897Z,24.08
2022-11-24T11:13:26.451Z,24.18
2022-11-24T11:15:57.970Z,24.19
2022-11-24T11:18:33.919Z,24.39
2022-11-24T11:21:05.184Z,24.53
2022-11-24T11:23:37.647Z,24.63
2022-11-24T11:26:27.022Z,24.91
2022-11-24T11:34:58.300Z,23.15
2022-11-24T11:37:34.400Z,22.50
2022-11-24T11:40:04.980Z,23.09
2022-11-24T11:45:31.098Z,22.87
2022-11-24T11:48:05.349Z,23.70
2022-11-24T11:53:47.987Z,24.56
2022-11-24T11:56:26.699Z,25.14
2022-11-24T11:59:12.501Z,25.90
2022-11-24T12:02:12.001Z,25.30
2022-11-24T12:04:55.101Z,24.91
2022-11-24T12:07:56.199Z,25.78
2022-11-24T12:10:47.955Z,25.73
2022-11-24T12:13:23.493Z,24.39
2022-11-24T12:15:57.521Z,23.46
2022-11-24T12:19:00.490Z,23.16
2022-11-24T12:21:53.572Z,23.15
2022-11-24T12:24:35.696Z,23.45
2022-11-24T12:27:27.035Z,25.10
2022-11-24T12:30:12.497Z,26.00
2022-11-24T12:33:12.800Z,26.36
2022-11-24T12:35:55.531Z,26.51
2022-11-24T12:39:07.650Z,27.54
2022-11-24T12:41:46.356Z,27.42
2022-11-24T12:44:37.377Z,27.05
2022-11-24T12:47:13.269Z,25.82
2022-11-24T12:50:05.051Z,26.89
2022-11-24T12:52:40.983Z,27.81
2022-11-24T12:55:19.807Z,27.86
2022-11-24T12:58:11.372Z,27.57
2022-11-24T13:01:03.532Z,28.21
2022-11-24T13:03:51.983Z,28.41
2022-11-24T13:06:58.838Z,27.97
2022-11-24T13:09:28.807Z,28.41
2022-11-24T13:12:14.968Z,28.39
2022-11-24T13:14:47.591Z,28.32
2022-11-24T13:17:50.242Z,28.63
2022-11-24T13:20:42.068Z,29.08
2022-11-24T13:23:26.471Z,28.86
2022-11-24T13:26:16.133Z,29.21
2022-11-24T13:29:18.310Z,28.99
2022-11-24T13:31:55.024Z,28.55
2022-11-24T13:34:46.678Z,28.80
2022-11-24T13:37:35.259Z,28.42
2022-11-24T13:40:32.034Z,28.80
2022-11-24T13:43:03.832Z,29.03
2022-11-24T13:45:43.580Z,29.20
2022-11-24T13:48:22.944Z,28.73
2022-11-24T13:50:56.152Z,28.73
2022-11-24T13:53:49.017Z,28.83
2022-11-24T13:56:19.973Z,29.03
2022-11-24T13:59:02.312Z,29.44
2022-11-24T14:01:34.979Z,29.31
2022-11-24T14:04:31.084Z,28.80
2022-11-24T14:07:09.457Z,28.86
2022-11-24T14:09:54.459Z,28.56
2022-11-24T14:12:27.185Z,28.87
2022-11-24T14:15:25.381Z,29.02
2022-11-24T14:17:55.530Z,28.72
2022-11-24T14:20:27.735Z,28.36
2022-11-24T14:22:57.974Z,28.63
2022-11-24T14:25:33.018Z,29.23
2022-11-24T14:28:03.327Z,29.03
2022-11-24T14:30:33.114Z,29.02
2022-11-24T14:33:05.768Z,29.52
2022-11-24T14:35:43.643Z,30.03
2022-11-24T14:38:15.035Z,29.57
2022-11-24T14:40:54.509Z,30.14
2022-11-24T14:43:35.625Z,30.34
2022-11-24T14:46:07.163Z,30.48
2022-11-24T14:48:55.166Z,29.98
2022-11-24T14:51:29.092Z,30.10
2022-11-24T14:54:07.880Z,30.53
2022-11-24T14:56:40.353Z,30.60
2022-11-24T14:59:26.520Z,30.60
2022-11-24T15:01:58.132Z,30.44
2022-11-24T15:05:00.737Z,30.57
2022-11-24T15:07:30.419Z,30.77
2022-11-24T15:10:02.960Z,30.47
2022-11-24T15:12:35.954Z,30.43
2022-11-24T15:15:16.403Z,29.39
2022-11-24T15:17:51.453Z,29.64
2022-11-24T15:20:45.837Z,30.41
2022-11-24T15:23:31.631Z,30.01
2022-11-24T15:26:04.924Z,30.33
2022-11-24T15:28:35.285Z,30.13
2022-11-24T15:31:07.865Z,30.47
2022-11-24T15:33:38.973Z,30.70
2022-11-24T15:36:09.301Z,30.51
2022-11-24T15:38:39.185Z,30.06
2022-11-24T15:41:22.129Z,30.54
2022-11-24T15:43:59.854Z,29.69
2022-11-24T15:46:31.322Z,30.45
2022-11-24T15:49:01.453Z,30.56
2022-11-24T15:51:31.437Z,30.30
2022-11-24T15:54:01.655Z,30.22
2022-11-24T15:56:36.378Z,29.93
2022-11-24T15:59:06.700Z,30.32
2022-11-24T16:01:36.583Z,30.61
2022-11-24T16:04:06.887Z,30.47
2022-11-24T16:06:38.015Z,30.45
2022-11-24T16:09:09.703Z,31.14
2022-11-24T16:11:39.720Z,31.09
2022-11-24T16:14:09.492Z,31.32
2022-11-24T16:16:39.247Z,31.67
2022-11-24T16:19:11.197Z,31.57
2022-11-24T16:21:41.640Z,31.73
2022-11-24T16:24:11.750Z,31.47
2022-11-24T16:26:42.202Z,30.82
2022-11-24T16:29:12.500Z,30.77
2022-11-24T16:31:44.503Z,31.46
2022-11-24T16:34:15.703Z,31.63
2022-11-24T16:36:45.412Z,31.43
2022-11-24T16:39:15.098Z,31.08
2022-11-24T16:41:44.817Z,31.02
2022-11-24T16:44:14.674Z,31.05
2022-11-24T16:46:45.790Z,30.91
2022-11-24T16:49:15.484Z,30.78
2022-11-24T16:51:46.177Z,31.23
2022-11-24T16:54:16.213Z,31.01
2022-11-24T16:56:45.922Z,30.96
2022-11-24T16:59:15.624Z,30.74
2022-11-24T17:01:47.621Z,31.35
2022-11-24T17:04:18.095Z,31.80
2022-11-24T17:06:48.186Z,31.33
2022-11-24T17:09:18.787Z,31.51
2022-11-24T17:11:48.663Z,30.26
2022-11-24T17:14:18.436Z,30.51
2022-11-24T17:16:48.543Z,30.72
2022-11-24T17:19:18.282Z,31.23
2022-11-24T17:21:48.001Z,30.98
2022-11-24T17:24:19.203Z,30.50
2022-11-24T17:26:52.542Z,29.95
2022-11-24T17:29:22.607Z,30.67
2022-11-24T17:31:52.346Z,30.92
2022-11-24T17:34:22.901Z,30.67
2022-11-24T17:36:52.772Z,30.94
2022-11-24T17:39:24.943Z,30.90
2022-11-24T17:41:55.172Z,31.05
2022-11-24T17:44:24.865Z,30.56
2022-11-24T17:46:54.625Z,30.47
2022-11-24T17:49:24.426Z,30.99
2022-11-24T17:51:54.102Z,31.12
2022-11-24T17:54:46.460Z,30.71
2022-11-24T17:57:13.888Z,30.77
2022-11-24T17:59:43.807Z,30.61
2022-11-24T18:02:13.689Z,30.70
2022-11-24T18:04:43.637Z,30.78
2022-11-24T18:07:13.554Z,30.72
2022-11-24T18:09:43.402Z,30.70
2022-11-24T18:12:14.057Z,30.71
2022-11-24T18:14:44.219Z,30.70
2022-11-24T18:17:14.593Z,30.85
2022-11-24T18:19:44.689Z,30.99
2022-11-24T18:22:14.794Z,30.98
2022-11-24T18:24:44.806Z,30.78
2022-11-24T18:27:14.865Z,30.26
2022-11-24T18:29:45.345Z,30.32
2022-11-24T18:32:15.513Z,30.39
2022-11-24T18:34:45.636Z,29.93
2022-11-24T18:37:17.637Z,29.81
2022-11-24T18:39:48.101Z,30.08
2022-11-24T18:42:19.220Z,30.29
2022-11-24T18:44:52.676Z,29.81
2022-11-24T18:47:25.188Z,29.44
2022-11-24T18:49:55.628Z,29.21
2022-11-24T18:52:25.770Z,29.25
2022-11-24T18:54:55.787Z,28.97
2022-11-24T18:57:25.836Z,28.84
2022-11-24T18:59:55.877Z,28.70
2022-11-24T19:02:25.943Z,28.65
2022-11-24T19:04:56.256Z,28.94
2022-11-24T19:07:26.460Z,28.66
2022-11-24T19:09:56.501Z,28.76
2022-11-24T19:12:26.574Z,28.66
2022-11-24T19:14:56.621Z,28.41
2022-11-24T19:17:26.923Z,28.18
2022-11-24T19:19:57.631Z,27.91
2022-11-24T19:22:27.937Z,27.66
2022-11-24T19:24:58.404Z,27.33
2022-11-24T19:27:28.504Z,27.19
2022-11-24T19:29:59.064Z,26.95
2022-11-24T19:32:29.957Z,26.84
2022-11-24T19:35:00.424Z,26.91
2022-11-24T19:37:31.523Z,27.03
2022-11-24T19:40:01.578Z,26.65
2022-11-24T19:42:31.689Z,26.72
2022-11-24T19:45:02.048Z,26.62
2022-11-24T19:47:32.144Z,26.48
2022-11-24T19:50:07.326Z,26.22
2022-11-24T19:52:40.935Z,26.00
2022-11-24T19:55:11.459Z,25.89
2022-11-24T19:57:41.610Z,25.85
2022-11-24T20:00:12.123Z,25.71
2022-11-24T20:02:42.665Z,25.64
2022-11-24T20:05:12.777Z,25.51
2022-11-24T20:07:42.978Z,25.41
2022-11-24T20:10:14.085Z,25.35
2022-11-24T20:12:44.370Z,25.13
2022-11-24T20:15:14.454Z,24.97
2022-11-24T20:17:44.485Z,24.90
2022-11-24T20:20:14.988Z,24.87
2022-11-24T20:22:45.568Z,24.86
2022-11-24T20:25:15.633Z,24.76
2022-11-24T20:27:46.893Z,24.63
2022-11-24T20:30:17.452Z,24.56
2022-11-24T20:32:47.568Z,24.51
2022-11-24T20:35:18.448Z,24.49
2022-11-24T20:37:51.755Z,24.38
2022-11-24T20:40:21.971Z,24.29
2022-11-24T20:42:52.148Z,24.21
2022-11-24T20:45:22.450Z,24.15
2022-11-24T20:47:52.540Z,24.05
2022-11-24T20:50:22.556Z,24.08
2022-11-24T20:52:52.588Z,24.08
2022-11-24T20:55:23.764Z,23.94
2022-11-24T20:57:54.650Z,23.84
2022-11-24T21:00:24.760Z,23.71
2022-11-24T21:02:57.769Z,23.63
2022-11-24T21:05:28.597Z,23.49
2022-11-24T21:07:58.647Z,23.45
2022-11-24T21:10:28.651Z,23.36
2022-11-24T21:12:59.409Z,23.24
2022-11-24T21:15:31.123Z,23.20
2022-11-24T21:18:01.626Z,23.08
2022-11-24T21:20:31.633Z,23.01
2022-11-24T21:23:01.653Z,23.03
2022-11-24T21:25:33.118Z,22.89
2022-11-24T21:28:03.549Z,22.84
2022-11-24T21:30:34.873Z,22.68
2022-11-24T21:33:06.680Z,22.60
2022-11-24T21:35:39.450Z,22.44
2022-11-24T21:38:10.182Z,22.31
2022-11-24T21:40:42.761Z,22.24
2022-11-24T21:43:15.817Z,22.17
2022-11-24T21:45:45.756Z,22.03
2022-11-24T21:48:16.378Z,21.94
2022-11-24T21:50:46.400Z,21.90
2022-11-24T21:53:16.411Z,21.88
2022-11-24T21:55:54.925Z,21.76
2022-11-24T21:58:25.893Z,21.63
2022-11-24T22:00:57.842Z,21.62
2022-11-24T22:03:28.252Z,21.46
2022-11-24T22:06:00.003Z,21.38
2022-11-24T22:08:31.535Z,21.24
2022-11-24T22:11:17.213Z,21.20
2022-11-24T22:13:48.239Z,21.10
2022-11-24T22:16:24.016Z,20.97
2022-11-24T22:18:53.857Z,20.91
2022-11-24T22:21:26.837Z,20.86
2022-11-24T22:23:57.061Z,20.77
2022-11-24T22:26:29.304Z,20.74
2022-11-24T22:29:00.108Z,20.73
2022-11-24T22:31:33.824Z,20.60
2022-11-24T22:34:04.937Z,20.45
2022-11-24T22:36:37.860Z,20.35
2022-11-24T22:39:08.445Z,20.30
2022-11-24T22:41:38.455Z,20.19
2022-11-24T22:44:08.565Z,20.07
2022-11-24T22:46:38.606Z,20.07
2022-11-24T22:49:09.638Z,20.02
2022-11-24T22:51:40.958Z,19.92
2022-11-24T22:54:15.050Z,19.94
2022-11-24T22:56:45.334Z,19.89
2022-11-24T22:59:15.964Z,19.89
2022-11-24T23:01:46.333Z,19.85
2022-11-24T23:04:16.602Z,19.78
2022-11-24T23:06:47.285Z,19.66
2022-11-24T23:09:17.675Z,19.56
2022-11-24T23:11:48.687Z,19.57
2022-11-24T23:14:19.095Z,19.47
2022-11-24T23:16:49.252Z,19.30
2022-11-24T23:19:19.410Z,19.12
2022-11-24T23:21:49.505Z,19.00
2022-11-24T23:24:19.747Z,18.87
2022-11-24T23:26:50.100Z,18.75
2022-11-24T23:29:20.158Z,18.64
2022-11-24T23:31:50.334Z,18.55
2022-11-24T23:34:20.453Z,18.54
2022-11-24T23:36:50.538Z,18.43
2022-11-24T23:39:20.569Z,18.33
2022-11-24T23:41:50.614Z,18.23
2022-11-24T23:44:20.623Z,18.09
2022-11-24T23:46:50.691Z,17.99
2022-11-24T23:49:21.109Z,17.93
2022-11-24T23:51:51.145Z,17.82
2022-11-24T23:54:21.179Z,17.75
2022-11-24T23:56:51.216Z,17.61
2022-11-24T23:59:21.413Z,17.55
